Overview Statistics Trail Chart Weather Telemetry Raw packets
 

This is the latest recevied weather packets stored in our database for station/object HA2SKA-1. If no packets are shown the sender has not sent any weather packets the latest 10 day(s).

<< 9 10 11 12 13 14 15 >>
Time Temp. Humidity Pressure Rain* Wind** Luminosity Snow
1788422712 24.44° C 74% 1023.6 hPa - - - -
1788421812 25° C 70% 1023.4 hPa - - - -
1788420911 25.56° C 66% 1023.1 hPa - - - -
1788420011 25° C 65% 1023.1 hPa - - - -
1788419111 25° C 64% 1023.1 hPa - - - -
1788418211 26.11° C 60% 1023.2 hPa - - - -
1788417311 27.22° C 57% 1023.1 hPa - - - -
1788416411 27.22° C 60% 1023.2 hPa - - - -
1788415511 23.89° C 78% 1023 hPa - - - -
1788414611 23.33° C 85% 1022.9 hPa - - - -
1788413711 23.33° C 87% 1022.9 hPa - - - -
1788412811 22.78° C 85% 1022.7 hPa - - - -
1788411911 21.11° C 95% 1022.6 hPa - - - -
1788411010 20° C 100% 1022.6 hPa - - - -
1788410110 21.11° C 94% 1022.4 hPa - - - -
1788409210 21.11° C 95% 1022.4 hPa - - - -
1788408310 21.67° C 89% 1022.2 hPa - - - -
1788407410 21.11° C 92% 1022.1 hPa - - - -
1788406510 21.11° C 96% 1022 hPa - - - -
1788405610 21.11° C 93% 1021.9 hPa - - - -
1788404710 21.11° C 95% 1021.7 hPa - - - -
1788403810 20.56° C 95% 1021.9 hPa - - - -
1788402910 21.11° C 93% 1021.9 hPa - - - -
1788402009 21.11° C 94% 1021.9 hPa - - - -
1788401109 21.11° C 90% 1022 hPa - - - -

* Rain since midnight (hover to see other rain measurements)
** Current wind speed in m/s (hover to see current wind gust speed)